Thursday, June 21, 2018, 12:00 PM EDT
Back to Local

KEWB, New Bedford Regional Airport

Location: New Bedford, MA, United States Lat: 41.683
Local Time: 12:00 PM EDT (16:00 GMT) Lon: -70.967
Time Zone: US/Eastern Elev: 78 ft

Show me the last for .
Show Decoded

2018-06-21 10:53 METAR KEWB 211453Z 16004KT 10SM CLR 23/18 A2978 RMK AO2 SLP084 T02280183 51002 =
2018-06-21 09:53 METAR KEWB 211353Z 16004KT 10SM CLR 21/17 A2978 RMK AO2 SLP084 T02060167 =
2018-06-21 08:53 METAR KEWB 211253Z 19006KT 10SM SCT110 20/17 A2978 RMK AO2 SLP084 T02000167 =
2018-06-21 07:53 METAR KEWB 211153Z 19005KT 10SM FEW120 19/18 A2977 RMK AO2 SLP082 60000
                 T01940178 10194 20189 51011 =
2018-06-21 06:53 METAR KEWB 211053Z 22005KT 10SM CLR 19/19 A2977 RMK AO2 RAB03E15 SLP080 P0000
                 T01890189 =
2018-06-21 05:53 METAR KEWB 210953Z AUTO 22003KT 10SM CLR 19/19 A2975 RMK AO2 SLP075 T01890189 =
2018-06-21 04:53 METAR KEWB 210853Z AUTO 24005KT 10SM FEW095 BKN120 19/18 A2974 RMK AO2 RAB13E47
                 SLP071 P0000 60000 T01890183 55006 =
2018-06-21 03:53 METAR KEWB 210753Z AUTO 23004KT 10SM CLR 19/18 A2973 RMK AO2 SLP069 T01890183 =
2018-06-21 02:53 METAR KEWB 210653Z AUTO 23006KT 10SM OVC110 19/18 A2975 RMK AO2 SLP073 T01890178
                 =
2018-06-21 01:53 METAR KEWB 210553Z AUTO 23005KT 10SM OVC120 19/18 A2976 RMK AO2 SLP077 T01940183
                 10206 20189 58009 =
2018-06-21 00:53 METAR KEWB 210453Z AUTO 23007KT 10SM BKN120 19/18 A2977 RMK AO2 SLP080 T01940183
                 402610106 =
2018-06-20 23:53 METAR KEWB 210353Z AUTO 23006KT 10SM CLR 19/18 A2978 RMK AO2 SLP084 T01940183 =
2018-06-20 22:53 METAR KEWB 210253Z AUTO 23007KT 10SM CLR 19/18 A2979 RMK AO2 SLP086 T01940183
                 50004 =
2018-06-20 21:53 METAR KEWB 210153Z 23006KT 10SM CLR 19/18 A2979 RMK AO2 SLP088 T01940183 =
2018-06-20 20:53 METAR KEWB 210053Z 24007KT 10SM CLR 20/18 A2978 RMK AO2 SLP084 T02000183 =
2018-06-20 19:53 METAR KEWB 202353Z 22008KT 10SM CLR 21/18 A2977 RMK AO2 SLP082 T02060183 10261
                 20206 56007 =
2018-06-20 18:53 METAR KEWB 202253Z COR 23007KT 10SM CLR 22/19 A2978 RMK AO2 SLP083 T02170189 =
2018-06-20 17:53 METAR KEWB 202153Z 20008KT 10SM CLR 23/18 A2978 RMK AO2 SLP085 T02280183 =
2018-06-20 16:53 METAR KEWB 202053Z 22012KT 10SM CLR 24/17 A2980 RMK AO2 SLP089 T02390167 58008 =
2018-06-20 15:53 METAR KEWB 201953Z 22009KT 10SM CLR 24/18 A2981 RMK AO2 SLP093 T02440178 =
2018-06-20 14:53 METAR KEWB 201853Z 23012KT 8SM CLR 25/17 A2982 RMK AO2 SLP097 T02500172 =
2018-06-20 13:53 METAR KEWB 201753Z 20012G19KT 10SM CLR 26/17 A2982 RMK AO2 SLP097 T02560172
                 10261 20206 58019 =
2018-06-20 12:53 METAR KEWB 201653Z 22014G20KT 10SM CLR 25/17 A2985 RMK AO2 SLP108 T02500167 =

Support USWX by starting your Amazon purchase here.